Terminal Aerodrome Forecast
Issued by NWS Sterling, VA

Current Version | Previous Version | Text Only | Print | Product List | Glossary Off
Versions: 1 2 3 4 5 6 7 8 9 10 11 12 13 14 15 16 17 18 19 20 21 22 23 24

000
FTUS41 KLWX 182056 AAA
TAFDCA
TAF AMD
KDCA 182056Z 1821/1924 06015G22KT 5SM -RA OVC008
     FM190000 07013G23KT 3SM -RA OVC008
     FM190200 08013G22KT 2SM -RA OVC008
     FM191000 09009KT 3SM -RA OVC003
     FM191400 14007KT 1 1/2SM -SHRA OVC003
     FM191800 18008KT P6SM OVC015=

USA.gov is the U.S. government's official web portal to all federal, state and local government web resources and services.